sensor_id;sensor_type;location;lat;lon;timestamp;P1;P2;P0
55276;PMS5003;41136;51.478;-2.610;2023-02-28T00:01:36;7;5;
55276;PMS5003;41136;51.478;-2.610;2023-02-28T00:04:02;6;6;
55276;PMS5003;41136;51.478;-2.610;2023-02-28T00:06:27;4;4;
55276;PMS5003;41136;51.478;-2.610;2023-02-28T00:08:52;3;3;
55276;PMS5003;41136;51.478;-2.610;2023-02-28T00:11:18;4;4;
55276;PMS5003;41136;51.478;-2.610;2023-02-28T00:13:44;5;5;
55276;PMS5003;41136;51.478;-2.610;2023-02-28T00:16:10;6;5;
55276;PMS5003;41136;51.478;-2.610;2023-02-28T00:18:34;7;4;
55276;PMS5003;41136;51.478;-2.610;2023-02-28T00:21:00;6;4;
55276;PMS5003;41136;51.478;-2.610;2023-02-28T00:23:25;5;4;
55276;PMS5003;41136;51.478;-2.610;2023-02-28T00:25:51;8;5;
55276;PMS5003;41136;51.478;-2.610;2023-02-28T00:28:16;7;6;
55276;PMS5003;41136;51.478;-2.610;2023-02-28T00:30:41;6;5;
55276;PMS5003;41136;51.478;-2.610;2023-02-28T00:33:07;4;4;
55276;PMS5003;41136;51.478;-2.610;2023-02-28T00:35:32;4;4;
55276;PMS5003;41136;51.478;-2.610;2023-02-28T00:37:58;8;6;
55276;PMS5003;41136;51.478;-2.610;2023-02-28T00:40:23;8;7;
55276;PMS5003;41136;51.478;-2.610;2023-02-28T00:42:49;7;6;
55276;PMS5003;41136;51.478;-2.610;2023-02-28T00:45:14;8;7;
55276;PMS5003;41136;51.478;-2.610;2023-02-28T00:47:40;7;6;
55276;PMS5003;41136;51.478;-2.610;2023-02-28T00:50:05;11;8;
55276;PMS5003;41136;51.478;-2.610;2023-02-28T00:52:31;9;6;
55276;PMS5003;41136;51.478;-2.610;2023-02-28T00:54:56;7;7;
55276;PMS5003;41136;51.478;-2.610;2023-02-28T00:57:21;7;7;
55276;PMS5003;41136;51.478;-2.610;2023-02-28T00:59:47;5;5;
55276;PMS5003;41136;51.478;-2.610;2023-02-28T01:02:12;7;6;
55276;PMS5003;41136;51.478;-2.610;2023-02-28T01:04:37;5;5;
55276;PMS5003;41136;51.478;-2.610;2023-02-28T01:07:03;5;5;
55276;PMS5003;41136;51.478;-2.610;2023-02-28T01:09:28;5;5;
55276;PMS5003;41136;51.478;-2.610;2023-02-28T01:11:53;5;5;
55276;PMS5003;41136;51.478;-2.610;2023-02-28T01:14:19;4;4;
55276;PMS5003;41136;51.478;-2.610;2023-02-28T01:16:44;5;5;
55276;PMS5003;41136;51.478;-2.610;2023-02-28T01:19:10;5;5;
55276;PMS5003;41136;51.478;-2.610;2023-02-28T01:21:35;7;5;
55276;PMS5003;41136;51.478;-2.610;2023-02-28T01:24:01;3;2;
55276;PMS5003;41136;51.478;-2.610;2023-02-28T01:26:26;7;5;
55276;PMS5003;41136;51.478;-2.610;2023-02-28T01:28:52;4;4;
55276;PMS5003;41136;51.478;-2.610;2023-02-28T01:31:17;4;4;
55276;PMS5003;41136;51.478;-2.610;2023-02-28T01:33:42;3;3;
55276;PMS5003;41136;51.478;-2.610;2023-02-28T01:41:14;4;2;
55276;PMS5003;41136;51.478;-2.610;2023-02-28T01:46:02;3;3;
55276;PMS5003;41136;51.478;-2.610;2023-02-28T01:48:28;2;2;
55276;PMS5003;41136;51.478;-2.610;2023-02-28T01:50:52;3;3;
55276;PMS5003;41136;51.478;-2.610;2023-02-28T01:53:19;4;2;
55276;PMS5003;41136;51.478;-2.610;2023-02-28T01:55:45;3;3;
55276;PMS5003;41136;51.478;-2.610;2023-02-28T01:58:09;2;2;
55276;PMS5003;41136;51.478;-2.610;2023-02-28T02:00:34;3;3;
55276;PMS5003;41136;51.478;-2.610;2023-02-28T02:03:00;4;2;
55276;PMS5003;41136;51.478;-2.610;2023-02-28T02:05:26;4;4;
55276;PMS5003;41136;51.478;-2.610;2023-02-28T02:07:51;3;3;
55276;PMS5003;41136;51.478;-2.610;2023-02-28T02:10:17;3;3;
55276;PMS5003;41136;51.478;-2.610;2023-02-28T02:12:46;4;4;
55276;PMS5003;41136;51.478;-2.610;2023-02-28T02:15:08;6;4;
55276;PMS5003;41136;51.478;-2.610;2023-02-28T02:17:34;4;4;
55276;PMS5003;41136;51.478;-2.610;2023-02-28T02:24:54;6;6;
55276;PMS5003;41136;51.478;-2.610;2023-02-28T02:29:44;4;3;
55276;PMS5003;41136;51.478;-2.610;2023-02-28T02:32:11;4;3;
55276;PMS5003;41136;51.478;-2.610;2023-02-28T02:34:36;3;3;
55276;PMS5003;41136;51.478;-2.610;2023-02-28T02:36:58;4;4;
55276;PMS5003;41136;51.478;-2.610;2023-02-28T02:39:23;4;4;
55276;PMS5003;41136;51.478;-2.610;2023-02-28T02:41:48;6;3;
55276;PMS5003;41136;51.478;-2.610;2023-02-28T02:44:13;4;4;
55276;PMS5003;41136;51.478;-2.610;2023-02-28T02:46:39;6;5;
55276;PMS5003;41136;51.478;-2.610;2023-02-28T02:49:05;5;5;
55276;PMS5003;41136;51.478;-2.610;2023-02-28T02:51:29;4;4;
55276;PMS5003;41136;51.478;-2.610;2023-02-28T02:53:55;6;5;
55276;PMS5003;41136;51.478;-2.610;2023-02-28T02:56:20;7;5;
55276;PMS5003;41136;51.478;-2.610;2023-02-28T02:58:45;5;5;
55276;PMS5003;41136;51.478;-2.610;2023-02-28T03:01:12;3;3;
55276;PMS5003;41136;51.478;-2.610;2023-02-28T03:03:36;7;6;
55276;PMS5003;41136;51.478;-2.610;2023-02-28T03:06:02;7;5;
55276;PMS5003;41136;51.478;-2.610;2023-02-28T03:08:28;3;3;
55276;PMS5003;41136;51.478;-2.610;2023-02-28T03:10:55;6;4;
55276;PMS5003;41136;51.478;-2.610;2023-02-28T03:15:47;6;6;
55276;PMS5003;41136;51.478;-2.610;2023-02-28T03:18:10;8;5;
55276;PMS5003;41136;51.478;-2.610;2023-02-28T03:20:36;6;6;
55276;PMS5003;41136;51.478;-2.610;2023-02-28T03:23:02;8;8;
55276;PMS5003;41136;51.478;-2.610;2023-02-28T03:25:28;7;5;
55276;PMS5003;41136;51.478;-2.610;2023-02-28T03:27:53;6;6;
55276;PMS5003;41136;51.478;-2.610;2023-02-28T03:30:17;8;7;
55276;PMS5003;41136;51.478;-2.610;2023-02-28T03:32:42;6;6;
55276;PMS5003;41136;51.478;-2.610;2023-02-28T03:35:07;8;8;
55276;PMS5003;41136;51.478;-2.610;2023-02-28T03:37:32;11;9;
55276;PMS5003;41136;51.478;-2.610;2023-02-28T03:39:58;10;9;
55276;PMS5003;41136;51.478;-2.610;2023-02-28T03:42:23;11;11;
55276;PMS5003;41136;51.478;-2.610;2023-02-28T03:44:49;11;10;
55276;PMS5003;41136;51.478;-2.610;2023-02-28T03:47:16;17;12;
55276;PMS5003;41136;51.478;-2.610;2023-02-28T03:49:40;12;10;
55276;PMS5003;41136;51.478;-2.610;2023-02-28T03:52:05;10;10;
55276;PMS5003;41136;51.478;-2.610;2023-02-28T03:54:30;20;12;
55276;PMS5003;41136;51.478;-2.610;2023-02-28T03:56:57;12;11;
55276;PMS5003;41136;51.478;-2.610;2023-02-28T03:59:22;9;8;
55276;PMS5003;41136;51.478;-2.610;2023-02-28T04:01:47;17;15;
55276;PMS5003;41136;51.478;-2.610;2023-02-28T04:04:12;13;12;
55276;PMS5003;41136;51.478;-2.610;2023-02-28T04:06:37;14;11;
55276;PMS5003;41136;51.478;-2.610;2023-02-28T04:09:04;14;14;
55276;PMS5003;41136;51.478;-2.610;2023-02-28T04:11:29;14;13;
55276;PMS5003;41136;51.478;-2.610;2023-02-28T04:13:53;15;14;
55276;PMS5003;41136;51.478;-2.610;2023-02-28T04:16:18;14;11;
55276;PMS5003;41136;51.478;-2.610;2023-02-28T04:18:44;20;19;
55276;PMS5003;41136;51.478;-2.610;2023-02-28T04:21:09;11;11;
55276;PMS5003;41136;51.478;-2.610;2023-02-28T04:23:34;18;14;
55276;PMS5003;41136;51.478;-2.610;2023-02-28T04:26:00;15;14;
55276;PMS5003;41136;51.478;-2.610;2023-02-28T04:28:26;13;13;
55276;PMS5003;41136;51.478;-2.610;2023-02-28T04:30:54;12;9;
55276;PMS5003;41136;51.478;-2.610;2023-02-28T04:33:17;15;11;
55276;PMS5003;41136;51.478;-2.610;2023-02-28T04:35:42;16;12;
55276;PMS5003;41136;51.478;-2.610;2023-02-28T04:38:07;11;11;
55276;PMS5003;41136;51.478;-2.610;2023-02-28T04:40:33;10;10;
55276;PMS5003;41136;51.478;-2.610;2023-02-28T04:42:58;10;10;
55276;PMS5003;41136;51.478;-2.610;2023-02-28T04:45:24;14;13;
55276;PMS5003;41136;51.478;-2.610;2023-02-28T04:47:49;12;12;
55276;PMS5003;41136;51.478;-2.610;2023-02-28T04:50:15;15;15;
55276;PMS5003;41136;51.478;-2.610;2023-02-28T04:52:40;9;9;
55276;PMS5003;41136;51.478;-2.610;2023-02-28T04:55:05;11;8;
55276;PMS5003;41136;51.478;-2.610;2023-02-28T04:57:31;10;9;
55276;PMS5003;41136;51.478;-2.610;2023-02-28T04:59:56;8;8;
55276;PMS5003;41136;51.478;-2.610;2023-02-28T05:02:21;11;8;
55276;PMS5003;41136;51.478;-2.610;2023-02-28T05:04:47;8;6;
55276;PMS5003;41136;51.478;-2.610;2023-02-28T05:07:12;10;8;
55276;PMS5003;41136;51.478;-2.610;2023-02-28T05:09:38;6;6;
55276;PMS5003;41136;51.478;-2.610;2023-02-28T05:12:03;8;8;
55276;PMS5003;41136;51.478;-2.610;2023-02-28T05:14:28;9;8;
55276;PMS5003;41136;51.478;-2.610;2023-02-28T05:16:54;6;6;
55276;PMS5003;41136;51.478;-2.610;2023-02-28T05:19:20;7;7;
55276;PMS5003;41136;51.478;-2.610;2023-02-28T05:21:49;11;7;
55276;PMS5003;41136;51.478;-2.610;2023-02-28T05:24:11;10;8;
55276;PMS5003;41136;51.478;-2.610;2023-02-28T05:26:36;6;6;
55276;PMS5003;41136;51.478;-2.610;2023-02-28T05:29:01;9;9;
55276;PMS5003;41136;51.478;-2.610;2023-02-28T05:31:26;6;6;
55276;PMS5003;41136;51.478;-2.610;2023-02-28T05:33:52;6;6;
55276;PMS5003;41136;51.478;-2.610;2023-02-28T05:36:18;6;6;
55276;PMS5003;41136;51.478;-2.610;2023-02-28T05:38:43;9;8;
55276;PMS5003;41136;51.478;-2.610;2023-02-28T05:41:09;9;8;
55276;PMS5003;41136;51.478;-2.610;2023-02-28T05:43:34;9;8;
55276;PMS5003;41136;51.478;-2.610;2023-02-28T05:46:01;10;9;
55276;PMS5003;41136;51.478;-2.610;2023-02-28T05:48:25;12;8;
55276;PMS5003;41136;51.478;-2.610;2023-02-28T05:50:50;14;12;
55276;PMS5003;41136;51.478;-2.610;2023-02-28T05:53:15;15;15;
55276;PMS5003;41136;51.478;-2.610;2023-02-28T05:55:41;20;16;
55276;PMS5003;41136;51.478;-2.610;2023-02-28T05:58:07;18;14;
55276;PMS5003;41136;51.478;-2.610;2023-02-28T06:00:32;14;13;
55276;PMS5003;41136;51.478;-2.610;2023-02-28T06:02:57;16;16;
55276;PMS5003;41136;51.478;-2.610;2023-02-28T06:05:22;23;21;
55276;PMS5003;41136;51.478;-2.610;2023-02-28T06:07:48;26;22;
55276;PMS5003;41136;51.478;-2.610;2023-02-28T06:10:13;20;19;
55276;PMS5003;41136;51.478;-2.610;2023-02-28T06:12:38;19;19;
55276;PMS5003;41136;51.478;-2.610;2023-02-28T06:15:04;19;19;
55276;PMS5003;41136;51.478;-2.610;2023-02-28T06:17:29;22;19;
55276;PMS5003;41136;51.478;-2.610;2023-02-28T06:19:54;28;26;
55276;PMS5003;41136;51.478;-2.610;2023-02-28T06:22:19;23;21;
55276;PMS5003;41136;51.478;-2.610;2023-02-28T06:24:45;25;21;
55276;PMS5003;41136;51.478;-2.610;2023-02-28T06:27:11;22;22;
55276;PMS5003;41136;51.478;-2.610;2023-02-28T06:29:36;21;20;
55276;PMS5003;41136;51.478;-2.610;2023-02-28T06:32:02;32;26;
55276;PMS5003;41136;51.478;-2.610;2023-02-28T06:34:27;24;22;
55276;PMS5003;41136;51.478;-2.610;2023-02-28T06:36:53;23;19;
55276;PMS5003;41136;51.478;-2.610;2023-02-28T06:39:18;31;30;
55276;PMS5003;41136;51.478;-2.610;2023-02-28T06:41:43;22;22;
55276;PMS5003;41136;51.478;-2.610;2023-02-28T06:44:11;27;23;
55276;PMS5003;41136;51.478;-2.610;2023-02-28T06:46:34;21;21;
55276;PMS5003;41136;51.478;-2.610;2023-02-28T06:48:59;27;24;
55276;PMS5003;41136;51.478;-2.610;2023-02-28T06:51:25;28;25;
55276;PMS5003;41136;51.478;-2.610;2023-02-28T06:53:51;24;23;
55276;PMS5003;41136;51.478;-2.610;2023-02-28T06:56:17;32;26;
55276;PMS5003;41136;51.478;-2.610;2023-02-28T06:58:45;30;19;
55276;PMS5003;41136;51.478;-2.610;2023-02-28T07:01:08;22;21;
55276;PMS5003;41136;51.478;-2.610;2023-02-28T07:03:34;25;24;
55276;PMS5003;41136;51.478;-2.610;2023-02-28T07:05:58;21;21;
55276;PMS5003;41136;51.478;-2.610;2023-02-28T07:08:24;29;25;
55276;PMS5003;41136;51.478;-2.610;2023-02-28T07:10:51;27;26;
55276;PMS5003;41136;51.478;-2.610;2023-02-28T07:13:14;30;26;
55276;PMS5003;41136;51.478;-2.610;2023-02-28T07:15:39;23;21;
55276;PMS5003;41136;51.478;-2.610;2023-02-28T07:18:05;27;24;
55276;PMS5003;41136;51.478;-2.610;2023-02-28T07:20:30;30;27;
55276;PMS5003;41136;51.478;-2.610;2023-02-28T07:22:56;32;22;
55276;PMS5003;41136;51.478;-2.610;2023-02-28T07:25:22;25;22;
55276;PMS5003;41136;51.478;-2.610;2023-02-28T07:27:47;21;19;
55276;PMS5003;41136;51.478;-2.610;2023-02-28T07:30:13;28;23;
55276;PMS5003;41136;51.478;-2.610;2023-02-28T07:32:38;25;23;
55276;PMS5003;41136;51.478;-2.610;2023-02-28T07:35:04;31;25;
55276;PMS5003;41136;51.478;-2.610;2023-02-28T07:37:29;27;21;
55276;PMS5003;41136;51.478;-2.610;2023-02-28T07:39:54;27;24;
55276;PMS5003;41136;51.478;-2.610;2023-02-28T07:42:19;26;24;
55276;PMS5003;41136;51.478;-2.610;2023-02-28T07:44:46;31;26;
55276;PMS5003;41136;51.478;-2.610;2023-02-28T07:47:10;22;21;
55276;PMS5003;41136;51.478;-2.610;2023-02-28T07:49:36;30;24;
55276;PMS5003;41136;51.478;-2.610;2023-02-28T07:52:01;21;20;
55276;PMS5003;41136;51.478;-2.610;2023-02-28T07:54:26;18;18;
55276;PMS5003;41136;51.478;-2.610;2023-02-28T07:56:52;17;17;
55276;PMS5003;41136;51.478;-2.610;2023-02-28T07:59:17;20;17;
55276;PMS5003;41136;51.478;-2.610;2023-02-28T08:01:42;15;15;
55276;PMS5003;41136;51.478;-2.610;2023-02-28T08:04:08;18;17;
55276;PMS5003;41136;51.478;-2.610;2023-02-28T08:06:34;19;18;
55276;PMS5003;41136;51.478;-2.610;2023-02-28T08:08:59;13;11;
55276;PMS5003;41136;51.478;-2.610;2023-02-28T08:11:24;19;14;
55276;PMS5003;41136;51.478;-2.610;2023-02-28T08:13:49;16;14;
55276;PMS5003;41136;51.478;-2.610;2023-02-28T08:16:15;14;12;
55276;PMS5003;41136;51.478;-2.610;2023-02-28T08:18:40;13;12;
55276;PMS5003;41136;51.478;-2.610;2023-02-28T08:21:06;12;12;
55276;PMS5003;41136;51.478;-2.610;2023-02-28T08:23:31;15;13;
55276;PMS5003;41136;51.478;-2.610;2023-02-28T08:25:56;11;11;
55276;PMS5003;41136;51.478;-2.610;2023-02-28T08:28:22;18;16;
55276;PMS5003;41136;51.478;-2.610;2023-02-28T08:30:48;12;12;
55276;PMS5003;41136;51.478;-2.610;2023-02-28T08:33:13;13;11;
55276;PMS5003;41136;51.478;-2.610;2023-02-28T08:35:38;14;13;
55276;PMS5003;41136;51.478;-2.610;2023-02-28T08:38:04;17;14;
55276;PMS5003;41136;51.478;-2.610;2023-02-28T08:40:29;13;13;
55276;PMS5003;41136;51.478;-2.610;2023-02-28T08:42:54;18;17;
55276;PMS5003;41136;51.478;-2.610;2023-02-28T08:45:19;20;14;
55276;PMS5003;41136;51.478;-2.610;2023-02-28T08:47:45;18;15;
55276;PMS5003;41136;51.478;-2.610;2023-02-28T08:50:10;24;20;
55276;PMS5003;41136;51.478;-2.610;2023-02-28T08:52:36;19;16;
55276;PMS5003;41136;51.478;-2.610;2023-02-28T08:55:02;22;19;
55276;PMS5003;41136;51.478;-2.610;2023-02-28T08:57:27;22;19;
55276;PMS5003;41136;51.478;-2.610;2023-02-28T08:59:53;20;20;
55276;PMS5003;41136;51.478;-2.610;2023-02-28T09:02:19;24;21;
55276;PMS5003;41136;51.478;-2.610;2023-02-28T09:04:44;25;19;
55276;PMS5003;41136;51.478;-2.610;2023-02-28T09:07:10;25;21;
55276;PMS5003;41136;51.478;-2.610;2023-02-28T09:09:36;24;19;
55276;PMS5003;41136;51.478;-2.610;2023-02-28T09:12:01;26;22;
55276;PMS5003;41136;51.478;-2.610;2023-02-28T09:14:27;29;27;
55276;PMS5003;41136;51.478;-2.610;2023-02-28T09:16:53;26;23;
55276;PMS5003;41136;51.478;-2.610;2023-02-28T09:19:19;29;23;
55276;PMS5003;41136;51.478;-2.610;2023-02-28T09:21:44;24;21;
55276;PMS5003;41136;51.478;-2.610;2023-02-28T09:24:09;24;22;
55276;PMS5003;41136;51.478;-2.610;2023-02-28T09:26:35;25;25;
55276;PMS5003;41136;51.478;-2.610;2023-02-28T09:29:01;26;23;
55276;PMS5003;41136;51.478;-2.610;2023-02-28T09:31:27;21;19;
55276;PMS5003;41136;51.478;-2.610;2023-02-28T09:33:52;28;25;
55276;PMS5003;41136;51.478;-2.610;2023-02-28T09:36:17;24;23;
55276;PMS5003;41136;51.478;-2.610;2023-02-28T09:38:43;21;18;
55276;PMS5003;41136;51.478;-2.610;2023-02-28T09:41:11;28;21;
55276;PMS5003;41136;51.478;-2.610;2023-02-28T09:43:35;34;24;
55276;PMS5003;41136;51.478;-2.610;2023-02-28T09:46:02;27;24;
55276;PMS5003;41136;51.478;-2.610;2023-02-28T09:48:27;20;18;
55276;PMS5003;41136;51.478;-2.610;2023-02-28T09:50:51;29;23;
55276;PMS5003;41136;51.478;-2.610;2023-02-28T09:53:18;22;21;
55276;PMS5003;41136;51.478;-2.610;2023-02-28T09:55:42;24;23;
55276;PMS5003;41136;51.478;-2.610;2023-02-28T09:58:08;23;21;
55276;PMS5003;41136;51.478;-2.610;2023-02-28T10:00:32;23;20;
55276;PMS5003;41136;51.478;-2.610;2023-02-28T10:05:22;24;22;
55276;PMS5003;41136;51.478;-2.610;2023-02-28T10:07:51;21;16;
55276;PMS5003;41136;51.478;-2.610;2023-02-28T10:10:17;21;21;
55276;PMS5003;41136;51.478;-2.610;2023-02-28T10:12:39;25;22;
55276;PMS5003;41136;51.478;-2.610;2023-02-28T10:15:05;26;23;
55276;PMS5003;41136;51.478;-2.610;2023-02-28T10:17:32;22;17;
55276;PMS5003;41136;51.478;-2.610;2023-02-28T10:19:58;21;19;
55276;PMS5003;41136;51.478;-2.610;2023-02-28T10:22:22;19;18;
55276;PMS5003;41136;51.478;-2.610;2023-02-28T10:24:47;18;16;
55276;PMS5003;41136;51.478;-2.610;2023-02-28T10:27:14;17;16;
55276;PMS5003;41136;51.478;-2.610;2023-02-28T10:29:37;18;15;
55276;PMS5003;41136;51.478;-2.610;2023-02-28T10:32:02;18;16;
55276;PMS5003;41136;51.478;-2.610;2023-02-28T10:34:28;17;16;
55276;PMS5003;41136;51.478;-2.610;2023-02-28T10:36:53;22;13;
55276;PMS5003;41136;51.478;-2.610;2023-02-28T10:41:44;26;19;
55276;PMS5003;41136;51.478;-2.610;2023-02-28T10:44:14;23;19;
55276;PMS5003;41136;51.478;-2.610;2023-02-28T10:46:35;22;16;
55276;PMS5003;41136;51.478;-2.610;2023-02-28T10:49:02;19;16;
55276;PMS5003;41136;51.478;-2.610;2023-02-28T10:51:26;28;19;
55276;PMS5003;41136;51.478;-2.610;2023-02-28T10:53:52;20;17;
55276;PMS5003;41136;51.478;-2.610;2023-02-28T10:56:18;24;18;
55276;PMS5003;41136;51.478;-2.610;2023-02-28T11:01:11;22;16;
55276;PMS5003;41136;51.478;-2.610;2023-02-28T11:03:34;20;17;
55276;PMS5003;41136;51.478;-2.610;2023-02-28T11:05:58;19;14;
55276;PMS5003;41136;51.478;-2.610;2023-02-28T11:08:24;19;18;
55276;PMS5003;41136;51.478;-2.610;2023-02-28T11:10:53;16;13;
55276;PMS5003;41136;51.478;-2.610;2023-02-28T11:13:16;15;14;
55276;PMS5003;41136;51.478;-2.610;2023-02-28T11:15:40;18;16;
55276;PMS5003;41136;51.478;-2.610;2023-02-28T11:18:08;22;18;
55276;PMS5003;41136;51.478;-2.610;2023-02-28T11:20:32;19;17;
55276;PMS5003;41136;51.478;-2.610;2023-02-28T11:22:56;21;18;
55276;PMS5003;41136;51.478;-2.610;2023-02-28T11:25:23;15;13;
55276;PMS5003;41136;51.478;-2.610;2023-02-28T11:27:48;19;16;
55276;PMS5003;41136;51.478;-2.610;2023-02-28T11:32:39;20;18;
55276;PMS5003;41136;51.478;-2.610;2023-02-28T11:35:13;25;16;
55276;PMS5003;41136;51.478;-2.610;2023-02-28T11:37:29;23;20;
55276;PMS5003;41136;51.478;-2.610;2023-02-28T11:39:55;25;19;
55276;PMS5003;41136;51.478;-2.610;2023-02-28T11:42:25;20;18;
55276;PMS5003;41136;51.478;-2.610;2023-02-28T11:44:51;23;16;
55276;PMS5003;41136;51.478;-2.610;2023-02-28T11:47:12;17;17;
55276;PMS5003;41136;51.478;-2.610;2023-02-28T11:49:37;20;17;
55276;PMS5003;41136;51.478;-2.610;2023-02-28T11:52:02;20;17;
55276;PMS5003;41136;51.478;-2.610;2023-02-28T11:54:29;16;16;
55276;PMS5003;41136;51.478;-2.610;2023-02-28T11:56:52;15;13;
55276;PMS5003;41136;51.478;-2.610;2023-02-28T11:59:22;19;18;
55276;PMS5003;41136;51.478;-2.610;2023-02-28T12:01:47;22;18;
55276;PMS5003;41136;51.478;-2.610;2023-02-28T12:04:11;18;17;
55276;PMS5003;41136;51.478;-2.610;2023-02-28T12:06:33;25;19;
55276;PMS5003;41136;51.478;-2.610;2023-02-28T12:09:02;15;13;
55276;PMS5003;41136;51.478;-2.610;2023-02-28T12:11:28;18;15;
55276;PMS5003;41136;51.478;-2.610;2023-02-28T12:13:51;17;13;
55276;PMS5003;41136;51.478;-2.610;2023-02-28T12:16:18;19;15;
55276;PMS5003;41136;51.478;-2.610;2023-02-28T12:18:49;21;14;
55276;PMS5003;41136;51.478;-2.610;2023-02-28T12:21:08;15;12;
55276;PMS5003;41136;51.478;-2.610;2023-02-28T12:26:00;13;12;
55276;PMS5003;41136;51.478;-2.610;2023-02-28T12:28:24;14;10;
55276;PMS5003;41136;51.478;-2.610;2023-02-28T12:30:49;13;12;
55276;PMS5003;41136;51.478;-2.610;2023-02-28T12:33:12;10;9;
55276;PMS5003;41136;51.478;-2.610;2023-02-28T12:35:38;12;8;
55276;PMS5003;41136;51.478;-2.610;2023-02-28T12:38:04;12;10;
55276;PMS5003;41136;51.478;-2.610;2023-02-28T12:40:29;9;8;
55276;PMS5003;41136;51.478;-2.610;2023-02-28T12:42:55;9;9;
55276;PMS5003;41136;51.478;-2.610;2023-02-28T12:45:19;11;11;
55276;PMS5003;41136;51.478;-2.610;2023-02-28T12:47:44;8;8;
55276;PMS5003;41136;51.478;-2.610;2023-02-28T12:50:10;14;13;
55276;PMS5003;41136;51.478;-2.610;2023-02-28T12:52:37;11;10;
55276;PMS5003;41136;51.478;-2.610;2023-02-28T12:55:02;14;10;
55276;PMS5003;41136;51.478;-2.610;2023-02-28T12:57:27;12;9;
55276;PMS5003;41136;51.478;-2.610;2023-02-28T12:59:52;12;9;
55276;PMS5003;41136;51.478;-2.610;2023-02-28T13:02:22;11;9;
55276;PMS5003;41136;51.478;-2.610;2023-02-28T13:04:47;10;10;
55276;PMS5003;41136;51.478;-2.610;2023-02-28T13:07:12;10;10;
55276;PMS5003;41136;51.478;-2.610;2023-02-28T13:09:32;14;11;
55276;PMS5003;41136;51.478;-2.610;2023-02-28T13:11:57;14;13;
55276;PMS5003;41136;51.478;-2.610;2023-02-28T13:14:24;15;12;
55276;PMS5003;41136;51.478;-2.610;2023-02-28T13:19:16;12;12;
55276;PMS5003;41136;51.478;-2.610;2023-02-28T13:21:42;12;12;
55276;PMS5003;41136;51.478;-2.610;2023-02-28T13:24:08;19;15;
55276;PMS5003;41136;51.478;-2.610;2023-02-28T13:28:58;13;12;
55276;PMS5003;41136;51.478;-2.610;2023-02-28T13:31:22;13;11;
55276;PMS5003;41136;51.478;-2.610;2023-02-28T13:38:39;18;12;
55276;PMS5003;41136;51.478;-2.610;2023-02-28T13:48:19;15;12;
55276;PMS5003;41136;51.478;-2.610;2023-02-28T13:50:45;12;12;
55276;PMS5003;41136;51.478;-2.610;2023-02-28T13:55:35;8;8;
55276;PMS5003;41136;51.478;-2.610;2023-02-28T13:58:07;7;6;
55276;PMS5003;41136;51.478;-2.610;2023-02-28T14:00:29;9;9;
55276;PMS5003;41136;51.478;-2.610;2023-02-28T14:02:57;8;7;
55276;PMS5003;41136;51.478;-2.610;2023-02-28T14:05:18;7;6;
55276;PMS5003;41136;51.478;-2.610;2023-02-28T14:07:44;9;9;
55276;PMS5003;41136;51.478;-2.610;2023-02-28T14:10:08;7;7;
55276;PMS5003;41136;51.478;-2.610;2023-02-28T14:14:58;7;7;
55276;PMS5003;41136;51.478;-2.610;2023-02-28T14:17:24;7;5;
55276;PMS5003;41136;51.478;-2.610;2023-02-28T14:19:49;5;5;
55276;PMS5003;41136;51.478;-2.610;2023-02-28T14:22:18;8;8;
55276;PMS5003;41136;51.478;-2.610;2023-02-28T14:27:08;9;9;
55276;PMS5003;41136;51.478;-2.610;2023-02-28T14:29:35;8;8;
55276;PMS5003;41136;51.478;-2.610;2023-02-28T14:31:57;11;11;
55276;PMS5003;41136;51.478;-2.610;2023-02-28T14:34:25;12;10;
55276;PMS5003;41136;51.478;-2.610;2023-02-28T14:36:46;7;7;
55276;PMS5003;41136;51.478;-2.610;2023-02-28T14:39:12;9;9;
55276;PMS5003;41136;51.478;-2.610;2023-02-28T14:41:38;9;9;
55276;PMS5003;41136;51.478;-2.610;2023-02-28T14:44:03;9;8;
55276;PMS5003;41136;51.478;-2.610;2023-02-28T14:46:28;11;10;
55276;PMS5003;41136;51.478;-2.610;2023-02-28T14:48:52;7;7;
55276;PMS5003;41136;51.478;-2.610;2023-02-28T14:51:18;7;7;
55276;PMS5003;41136;51.478;-2.610;2023-02-28T14:53:43;5;5;
55276;PMS5003;41136;51.478;-2.610;2023-02-28T14:58:34;6;5;
55276;PMS5003;41136;51.478;-2.610;2023-02-28T15:01:00;7;7;
55276;PMS5003;41136;51.478;-2.610;2023-02-28T15:03:29;8;7;
55276;PMS5003;41136;51.478;-2.610;2023-02-28T15:05:52;5;4;
55276;PMS5003;41136;51.478;-2.610;2023-02-28T15:08:16;8;5;
55276;PMS5003;41136;51.478;-2.610;2023-02-28T15:10:42;5;5;
55276;PMS5003;41136;51.478;-2.610;2023-02-28T15:13:07;9;6;
55276;PMS5003;41136;51.478;-2.610;2023-02-28T15:15:35;9;8;
55276;PMS5003;41136;51.478;-2.610;2023-02-28T15:17:57;6;6;
55276;PMS5003;41136;51.478;-2.610;2023-02-28T15:20:23;5;5;
55276;PMS5003;41136;51.478;-2.610;2023-02-28T15:22:49;10;7;
55276;PMS5003;41136;51.478;-2.610;2023-02-28T15:25:15;10;8;
55276;PMS5003;41136;51.478;-2.610;2023-02-28T15:27:41;8;6;
55276;PMS5003;41136;51.478;-2.610;2023-02-28T15:30:05;9;8;
55276;PMS5003;41136;51.478;-2.610;2023-02-28T15:32:30;7;7;
55276;PMS5003;41136;51.478;-2.610;2023-02-28T15:34:55;12;10;
55276;PMS5003;41136;51.478;-2.610;2023-02-28T15:37:26;10;10;
55276;PMS5003;41136;51.478;-2.610;2023-02-28T15:39:46;9;9;
55276;PMS5003;41136;51.478;-2.610;2023-02-28T15:42:12;11;8;
55276;PMS5003;41136;51.478;-2.610;2023-02-28T15:44:36;7;7;
55276;PMS5003;41136;51.478;-2.610;2023-02-28T15:47:02;11;9;
55276;PMS5003;41136;51.478;-2.610;2023-02-28T15:49:28;11;11;
55276;PMS5003;41136;51.478;-2.610;2023-02-28T15:51:53;9;9;
55276;PMS5003;41136;51.478;-2.610;2023-02-28T15:54:19;8;7;
55276;PMS5003;41136;51.478;-2.610;2023-02-28T15:56:44;10;8;
55276;PMS5003;41136;51.478;-2.610;2023-02-28T15:59:12;11;11;
55276;PMS5003;41136;51.478;-2.610;2023-02-28T16:01:35;8;8;
55276;PMS5003;41136;51.478;-2.610;2023-02-28T16:04:01;9;9;
55276;PMS5003;41136;51.478;-2.610;2023-02-28T16:06:30;8;7;
55276;PMS5003;41136;51.478;-2.610;2023-02-28T16:08:51;9;9;
55276;PMS5003;41136;51.478;-2.610;2023-02-28T16:11:16;8;7;
55276;PMS5003;41136;51.478;-2.610;2023-02-28T16:13:42;8;7;
55276;PMS5003;41136;51.478;-2.610;2023-02-28T16:16:07;7;7;
55276;PMS5003;41136;51.478;-2.610;2023-02-28T16:18:32;8;8;
55276;PMS5003;41136;51.478;-2.610;2023-02-28T16:20:58;8;8;
55276;PMS5003;41136;51.478;-2.610;2023-02-28T16:23:23;7;7;
55276;PMS5003;41136;51.478;-2.610;2023-02-28T16:25:48;8;7;
55276;PMS5003;41136;51.478;-2.610;2023-02-28T16:28:16;7;7;
55276;PMS5003;41136;51.478;-2.610;2023-02-28T16:30:39;10;8;
55276;PMS5003;41136;51.478;-2.610;2023-02-28T16:33:05;7;7;
55276;PMS5003;41136;51.478;-2.610;2023-02-28T16:35:30;8;8;
55276;PMS5003;41136;51.478;-2.610;2023-02-28T16:37:55;8;8;
55276;PMS5003;41136;51.478;-2.610;2023-02-28T16:40:21;7;5;
55276;PMS5003;41136;51.478;-2.610;2023-02-28T16:42:46;12;9;
55276;PMS5003;41136;51.478;-2.610;2023-02-28T16:45:15;6;6;
55276;PMS5003;41136;51.478;-2.610;2023-02-28T16:47:37;6;5;
55276;PMS5003;41136;51.478;-2.610;2023-02-28T16:50:04;9;7;
55276;PMS5003;41136;51.478;-2.610;2023-02-28T16:52:27;5;5;
55276;PMS5003;41136;51.478;-2.610;2023-02-28T16:54:53;6;6;
55276;PMS5003;41136;51.478;-2.610;2023-02-28T16:57:19;7;6;
55276;PMS5003;41136;51.478;-2.610;2023-02-28T17:02:31;7;7;